Time;durP1;ratioP1;P1;durP2;ratioP2;P2;SDS_P1;SDS_P2;PMS_P1;PMS_P2;Temp;Humidity;BMP_temperature;BMP_pressure;BME280_temperature;BME280_humidity;BME280_pressure;Samples;Min_cycle;Max_cycle;Signal;HPM_P1;HPM_P2
2021/09/13 11:57:53;;;;;;;10.37;5.87;;;;;;;27.01;33.93;99501.97;402479;132;883661;-57
2021/09/13 11:58:55;;;;;;;11.88;6.98;;;;;;;26.89;32.48;99493.20;394820;135;856427;-59
2021/09/13 12:00:05;;;;;;;10.64;5.93;;;;;;;26.87;32.41;99498.66;390210;135;856357;-59
2021/09/13 12:01:07;;;;;;;;;;;;;;;26.87;32.41;99498.66;377653;140;865676;-58
2021/09/13 12:02:11;;;;;;;7.46;5.40;;;;;;;26.85;32.14;99495.29;372044;142;856340;-59
2021/09/13 12:03:12;;;;;;;12.50;7.03;;;;;;;26.83;32.90;99491.92;377140;140;857121;-60
2021/09/13 12:04:20;;;;;;;8.04;6.10;;;;;;;26.88;32.61;99489.72;373113;140;864649;-59
2021/09/13 12:05:26;;;;;;;10.47;6.01;;;;;;;26.97;32.71;99486.28;376770;139;863823;-58
2021/09/13 12:06:30;;;;;;;10.26;6.34;;;;;;;27.17;33.83;99485.58;369395;142;856991;-58
2021/09/13 12:07:32;;;;;;;9.03;6.10;;;;;;;27.40;32.64;99486.24;375445;140;856952;-58
2021/09/13 12:08:33;;;;;;;9.70;6.07;;;;;;;27.59;33.01;99474.08;377662;140;863797;-59
2021/09/13 12:09:37;;;;;;;15.85;5.81;;;;;;;27.75;32.11;99476.21;375684;142;856316;-58
2021/09/13 12:10:39;;;;;;;10.60;5.99;;;;;;;27.86;31.77;99473.45;376200;140;864519;-58
2021/09/13 12:11:41;;;;;;;8.99;5.56;;;;;;;28.04;32.03;99480.77;374051;142;856498;-57
2021/09/13 12:12:45;;;;;;;12.56;6.22;;;;;;;28.36;30.54;99474.43;373630;141;863996;-58
2021/09/13 12:13:47;;;;;;;8.91;6.04;;;;;;;29.14;29.99;99485.04;372631;142;856546;-58
2021/09/13 12:14:49;;;;;;;11.99;6.28;;;;;;;30.75;27.22;99489.32;374347;141;856578;-59
2021/09/13 12:15:52;;;;;;;7.32;5.45;;;;;;;31.52;26.56;99482.50;373212;141;864245;-58
2021/09/13 12:17:13;;;;;;;7.99;5.67;;;;;;;32.94;23.66;99485.39;371653;142;863979;-58
2021/09/13 12:18:16;;;;;;;11.32;6.03;;;;;;;34.29;23.35;99482.91;372313;141;856726;-59
2021/09/13 12:19:19;;;;;;;14.21;6.67;;;;;;;36.30;21.45;99478.83;373149;141;857152;-59
2021/09/13 12:20:30;;;;;;;9.43;5.52;;;;;;;36.94;19.27;99474.39;373279;142;856496;-58
2021/09/13 12:21:32;;;;;;;9.69;5.78;;;;;;;37.89;19.19;99475.80;371597;141;863843;-58
2021/09/13 12:22:34;;;;;;;8.08;5.78;;;;;;;39.18;17.05;99480.28;375066;142;856442;-58
2021/09/13 12:23:40;;;;;;;7.31;5.53;;;;;;;39.20;16.05;99478.20;374888;141;856438;-58
2021/09/13 12:24:41;;;;;;;9.10;5.97;;;;;;;39.20;16.05;99478.20;374425;142;856460;-58
2021/09/13 12:25:45;;;;;;;8.64;6.15;;;;;;;39.52;16.82;99478.36;374052;141;864081;-60
2021/09/13 12:26:47;;;;;;;6.97;5.34;;;;;;;39.88;16.37;99476.97;373998;141;857217;-58
2021/09/13 12:27:50;;;;;;;11.09;5.80;;;;;;;40.81;16.36;99474.69;375545;141;863940;-59
2021/09/13 12:28:52;;;;;;;8.21;5.72;;;;;;;41.16;15.79;99468.72;375354;141;864844;-59
2021/09/13 12:30:02;;;;;;;9.27;5.42;;;;;;;42.09;15.23;99484.14;376080;141;856628;-59
2021/09/13 12:31:06;;;;;;;7.60;5.21;;;;;;;43.30;14.40;99481.31;370363;141;863808;-58
2021/09/13 12:32:23;;;;;;;10.94;5.53;;;;;;;44.06;13.29;99475.73;370896;142;860191;-59
2021/09/13 12:33:38;;;;;;;10.32;5.77;;;;;;;42.55;13.48;99470.05;373939;141;856798;-59
2021/09/13 12:34:57;;;;;;;8.99;5.73;;;;;;;40.36;14.96;99477.55;371070;141;856414;-58
2021/09/13 12:36:03;;;;;;;7.22;5.23;;;;;;;37.21;17.53;99466.53;373025;142;856541;-59
2021/09/13 12:37:05;;;;;;;7.62;5.23;;;;;;;35.76;19.51;99476.34;374057;141;863798;-59
2021/09/13 12:38:14;;;;;;;8.71;5.19;;;;;;;35.84;19.79;99472.69;381171;139;856466;-58
2021/09/13 12:39:16;;;;;;;9.42;5.68;;;;;;;36.74;19.19;99464.30;379384;140;863780;-57
2021/09/13 12:40:19;;;;;;;7.67;5.33;;;;;;;36.99;18.76;99466.58;375521;141;864957;-58
2021/09/13 12:41:32;;;;;;;13.03;5.71;;;;;;;36.43;19.42;99460.08;379805;139;857044;-58
2021/09/13 12:42:33;;;;;;;8.51;5.12;;;;;;;36.91;19.98;99462.16;371796;143;856599;-58
2021/09/13 12:43:38;;;;;;;9.44;5.49;;;;;;;38.29;17.39;99460.53;372645;140;856482;-58
2021/09/13 12:44:40;;;;;;;8.63;6.04;;;;;;;38.46;17.63;99457.45;381974;139;863693;-58
2021/09/13 12:45:42;;;;;;;9.61;5.74;;;;;;;;;;382339;138;864069;-58
2021/09/13 12:46:47;;;;;;;7.76;5.45;;;;;;;;;;374668;143;863971;-60
2021/09/13 12:47:51;;;;;;;6.59;5.08;;;;;;;;;;377695;139;864675;-58
2021/09/13 12:48:54;;;;;;;9.36;5.49;;;;;;;;;;378658;141;856887;-57
2021/09/13 12:49:56;;;;;;;6.66;5.21;;;;;;;;;;378401;141;856980;-58
2021/09/13 12:50:57;;;;;;;9.07;5.39;;;;;;;;;;377932;139;857173;-58
2021/09/13 12:52:00;;;;;;;8.44;5.41;;;;;;;;;;378897;139;864187;-58
2021/09/13 12:53:03;;;;;;;7.43;5.15;;;;;;;;;;377962;141;856361;-59
2021/09/13 12:54:05;;;;;;;6.65;5.33;;;;;;;;;;378653;141;856525;-58
2021/09/13 12:55:17;;;;;;;8.79;5.79;;;;;;;;;;377886;140;856412;-58
2021/09/13 12:56:20;;;;;;;11.91;5.69;;;;;;;;;;379520;139;857061;-58
2021/09/13 12:57:34;;;;;;;14.18;5.81;;;;;;;;;;379487;138;856631;-58
2021/09/13 12:58:36;;;;;;;9.06;5.76;;;;;;;;;;375012;139;856586;-58
2021/09/13 12:59:38;;;;;;;9.12;5.63;;;;;;;;;;378311;139;856347;-59
2021/09/13 13:00:41;;;;;;;9.99;5.26;;;;;;;;;;371082;143;864172;-58
2021/09/13 13:01:43;;;;;;;9.79;5.41;;;;;;;;;;385777;136;856578;-59
2021/09/13 13:02:46;;;;;;;7.94;5.73;;;;;;;;;;392019;135;864055;-57
2021/09/13 13:03:50;;;;;;;8.98;5.41;;;;;;;;;;388276;136;863946;-57
2021/09/13 13:04:52;;;;;;;7.32;5.49;;;;;;;;;;390708;136;864798;-58
2021/09/13 13:05:54;;;;;;;8.75;5.39;;;;;;;;;;391892;135;863790;-58
2021/09/13 13:07:08;;;;;;;7.90;5.86;;;;;;;;;;388558;135;856614;-58
2021/09/13 13:08:10;;;;;;;7.79;5.53;;;;;;;;;;392094;136;863891;-58
2021/09/13 13:09:11;;;;;;;10.31;5.65;;;;;;;;;;391286;135;856705;-58
2021/09/13 13:10:13;;;;;;;7.93;5.62;;;;;;;;;;390304;135;856739;-59
2021/09/13 13:11:15;;;;;;;8.29;6.07;;;;;;;;;;385078;136;856511;-59
2021/09/13 13:12:16;;;;;;;8.04;6.08;;;;;;;;;;371043;145;856388;-59
2021/09/13 13:13:18;;;;;;;9.12;5.80;;;;;;;;;;374164;141;863788;-59
2021/09/13 13:14:19;;;;;;;9.01;5.59;;;;;;;;;;373791;142;856431;-59
2021/09/13 13:15:21;;;;;;;12.37;6.24;;;;;;;;;;369672;141;856629;-58
2021/09/13 13:16:39;;;;;;;11.05;5.93;;;;;;;;;;371698;141;856380;-59
2021/09/13 13:17:40;;;;;;;8.45;5.97;;;;;;;;;;370684;141;864557;-58
2021/09/13 13:18:42;;;;;;;9.86;6.74;;;;;;;;;;371971;144;856558;-58
2021/09/13 13:19:44;;;;;;;11.34;6.24;;;;;;;;;;385706;138;856466;-59
2021/09/13 13:20:47;;;;;;;11.06;6.40;;;;;;;;;;375818;140;856726;-59
2021/09/13 13:21:49;;;;;;;9.97;6.04;;;;;;;;;;380366;140;864102;-58
2021/09/13 13:22:51;;;;;;;8.32;5.94;;;;;;;;;;379981;140;856602;-58
2021/09/13 13:23:52;;;;;;;9.67;6.19;;;;;;;;;;373535;141;864095;-58
2021/09/13 13:24:54;;;;;;;10.84;5.99;;;;;;;;;;375039;140;856770;-59
2021/09/13 13:25:56;;;;;;;9.03;6.04;;;;;;;;;;371507;142;856594;-58
2021/09/13 13:26:59;;;;;;;10.03;5.97;;;;;;;;;;375109;141;856981;-58
2021/09/13 13:28:01;;;;;;;11.63;6.14;;;;;;;;;;375283;141;856372;-59
2021/09/13 13:29:02;;;;;;;11.25;5.92;;;;;;;;;;375730;140;856405;-58
2021/09/13 13:30:04;;;;;;;14.69;5.74;;;;;;;;;;382223;140;856381;-58
2021/09/13 13:31:07;;;;;;;11.85;6.25;;;;;;;;;;376952;140;858342;-58
2021/09/13 13:32:08;;;;;;;7.34;5.26;;;;;;;;;;372879;142;863902;-58
2021/09/13 13:33:10;;;;;;;14.71;6.24;;;;;;;;;;372165;141;856455;-59
2021/09/13 13:34:11;;;;;;;10.13;5.89;;;;;;;;;;378111;140;856475;-58
2021/09/13 13:35:13;;;;;;;9.05;6.10;;;;;;;;;;376381;140;856448;-59
2021/09/13 13:36:16;;;;;;;10.67;6.04;;;;;;;;;;376933;140;859063;-58
2021/09/13 13:37:18;;;;;;;9.99;6.31;;;;;;;;;;374938;143;856444;-58
2021/09/13 13:38:20;;;;;;;10.85;6.46;;;;;;;;;;377677;139;856442;-58
2021/09/13 13:39:21;;;;;;;12.69;6.01;;;;;;;;;;381450;139;856392;-58
2021/09/13 13:40:23;;;;;;;14.20;6.41;;;;;;;;;;383623;140;856334;-59
2021/09/13 13:41:25;;;;;;;8.68;6.17;;;;;;;;;;383408;140;856341;-58
2021/09/13 13:42:27;;;;;;;9.37;6.11;;;;;;;;;;381668;139;860204;-58
2021/09/13 13:43:28;;;;;;;9.05;5.80;;;;;;;;;;374655;141;856763;-59
2021/09/13 13:44:30;;;;;;;7.10;6.09;;;;;;;;;;368274;146;856869;-58
2021/09/13 13:45:31;;;;;;;9.32;6.25;;;;;;;;;;372366;141;856669;-59
2021/09/13 13:46:34;;;;;;;9.58;6.31;;;;;;;;;;375733;141;856865;-58
2021/09/13 13:47:38;;;;;;;9.78;6.24;;;;;;;;;;374983;142;856409;-58
2021/09/13 13:48:39;;;;;;;8.59;5.94;;;;;;;;;;376479;142;863969;-59
2021/09/13 13:49:41;;;;;;;8.88;5.74;;;;;;;;;;376436;141;856472;-58
2021/09/13 13:50:42;;;;;;;10.29;6.61;;;;;;;;;;375113;141;856561;-59
2021/09/13 13:51:44;;;;;;;8.73;6.37;;;;;;;;;;376950;140;863921;-58
2021/09/13 13:52:47;;;;;;;11.20;6.09;;;;;;;;;;379363;138;856741;-59
2021/09/13 13:53:49;;;;;;;9.93;6.49;;;;;;;;;;379121;139;856540;-59
2021/09/13 13:54:50;;;;;;;9.90;6.31;;;;;;;;;;384150;140;856603;-59
2021/09/13 13:55:52;;;;;;;12.17;6.55;;;;;;;;;;378461;141;864724;-58
2021/09/13 13:56:54;;;;;;;8.75;6.41;;;;;;;;;;381578;138;856575;-59
2021/09/13 13:57:55;;;;;;;8.56;6.66;;;;;;;;;;381240;139;856623;-59
2021/09/13 13:58:57;;;;;;;12.39;6.24;;;;;;;;;;376787;140;856511;-58
2021/09/13 13:59:59;;;;;;;9.49;5.79;;;;;;;;;;377153;140;862083;-58
2021/09/13 14:01:00;;;;;;;10.76;6.15;;;;;;;;;;377320;140;857272;-58
2021/09/13 14:02:02;;;;;;;8.29;6.04;;;;;;;;;;378063;140;863860;-58
2021/09/13 14:03:03;;;;;;;7.85;6.06;;;;;;;;;;377110;141;856479;-59
2021/09/13 14:04:05;;;;;;;10.71;6.31;;;;;;;;;;376467;140;856333;-59
2021/09/13 14:05:07;;;;;;;8.11;5.98;;;;;;;;;;370426;143;858760;-59
2021/09/13 14:06:09;;;;;;;11.60;6.51;;;;;;;;;;371875;142;863844;-58
2021/09/13 14:07:12;;;;;;;9.50;6.40;;;;;;;;;;369773;143;856718;-58
2021/09/13 14:08:14;;;;;;;10.79;6.54;;;;;;;;;;376531;140;856491;-60
2021/09/13 14:09:15;;;;;;;8.97;6.22;;;;;;;;;;376062;141;856999;-58
2021/09/13 14:10:17;;;;;;;10.69;6.35;;;;;;;;;;380598;140;863817;-58
2021/09/13 14:11:19;;;;;;;8.86;5.91;;;;;;;;;;377560;140;856809;-59
2021/09/13 14:12:21;;;;;;;12.58;6.19;;;;;;;;;;377958;139;856342;-59
2021/09/13 14:13:22;;;;;;;10.32;6.13;;;;;;;;;;375341;141;857063;-58
2021/09/13 14:14:25;;;;;;;9.42;6.02;;;;;;;;;;366602;143;857080;-58
2021/09/13 14:15:27;;;;;;;11.19;5.54;;;;;;;;;;375167;141;856348;-57
2021/09/13 14:16:29;;;;;;;7.65;5.90;;;;;;;;;;373071;142;856532;-58
2021/09/13 14:17:33;;;;;;;7.37;5.29;;;;;;;;;;372921;142;856736;-58
2021/09/13 14:18:35;;;;;;;8.90;6.33;;;;;;;;;;374979;140;863736;-57
2021/09/13 14:19:37;;;;;;;8.44;6.27;;;;;;;;;;377243;140;856467;-57
2021/09/13 14:20:41;;;;;;;11.26;5.55;;;;;;;;;;376737;140;863866;-58
2021/09/13 14:21:42;;;;;;;6.85;5.49;;;;;;;;;;375372;141;856494;-58
2021/09/13 14:22:44;;;;;;;8.94;5.76;;;;;;;;;;377283;141;856734;-58
2021/09/13 14:23:45;;;;;;;8.19;5.84;;;;;;;;;;373942;141;856653;-57
2021/09/13 14:24:47;;;;;;;8.38;5.57;;;;;;;;;;361563;149;856802;-57
2021/09/13 14:25:49;;;;;;;8.61;5.81;;;;;;;;;;368278;143;864634;-57
2021/09/13 14:26:52;;;;;;;9.10;5.69;;;;;;;;;;367590;143;864059;-57
2021/09/13 14:27:53;;;;;;;8.92;5.82;;;;;;;;;;364768;145;856587;-56
2021/09/13 14:28:55;;;;;;;8.34;5.75;;;;;;;;;;367106;145;856576;-58
2021/09/13 14:29:56;;;;;;;7.29;5.75;;;;;;;;;;369452;143;856428;-57
2021/09/13 14:30:58;;;;;;;8.77;5.64;;;;;;;;;;370670;143;856338;-58
2021/09/13 14:32:02;;;;;;;6.51;5.59;;;;;;;;;;371633;144;856595;-59
2021/09/13 14:33:03;;;;;;;8.71;5.49;;;;;;;;;;369927;144;856443;-59
2021/09/13 14:34:05;;;;;;;8.22;5.34;;;;;;;;;;368805;143;857042;-59
2021/09/13 14:35:07;;;;;;;6.81;5.41;;;;;;;;;;369055;144;864217;-60
2021/09/13 14:36:09;;;;;;;6.72;5.36;;;;;;;;;;371795;144;857162;-58
2021/09/13 14:37:10;;;;;;;10.16;5.32;;;;;;;;;;370498;143;856783;-59
2021/09/13 14:38:15;;;;;;;6.21;4.72;;;;;;;;;;366342;143;856449;-60
2021/09/13 14:39:16;;;;;;;7.86;5.38;;;;;;;;;;370683;145;856466;-59
2021/09/13 14:40:19;;;;;;;9.32;5.35;;;;;;;;;;376230;140;856409;-60
2021/09/13 14:41:20;;;;;;;7.40;5.41;;;;;;;;;;376183;140;863877;-60
2021/09/13 14:42:22;;;;;;;8.05;5.55;;;;;;;;;;378260;140;856370;-59
2021/09/13 14:43:24;;;;;;;7.54;5.36;;;;;;;;;;380181;140;856505;-61
2021/09/13 14:44:25;;;;;;;8.57;5.37;;;;;;;;;;376145;140;861319;-60
2021/09/13 14:45:27;;;;;;;8.14;5.68;;;;;;;;;;376831;140;856302;-59
2021/09/13 14:46:30;;;;;;;9.19;5.79;;;;;;;;;;378299;141;856395;-59
2021/09/13 14:47:32;;;;;;;7.09;5.46;;;;;;;;;;376083;140;856523;-59
2021/09/13 14:48:33;;;;;;;7.26;5.56;;;;;;;;;;377051;141;856645;-58
2021/09/13 14:49:35;;;;;;;6.73;5.19;;;;;;;;;;371114;143;856479;-59
2021/09/13 14:50:38;;;;;;;9.42;5.97;;;;;;;;;;370726;142;863679;-59
2021/09/13 14:51:39;;;;;;;9.36;5.95;;;;;;;;;;370206;143;863853;-59
2021/09/13 14:52:41;;;;;;;8.11;5.86;;;;;;;;;;378041;139;856467;-58
2021/09/13 14:53:42;;;;;;;12.41;5.34;;;;;;;;;;377244;141;856429;-58
2021/09/13 14:54:44;;;;;;;7.39;5.54;;;;;;;;;;376257;140;864080;-58
2021/09/13 14:55:45;;;;;;;7.19;5.46;;;;;;;;;;376352;140;862352;-59
2021/09/13 14:56:48;;;;;;;7.67;4.93;;;;;;;;;;374573;141;856604;-59
2021/09/13 14:57:49;;;;;;;10.09;4.48;;;;;;;;;;376470;140;856947;-64
2021/09/13 14:58:51;;;;;;;10.89;4.57;;;;;;;;;;380422;139;856700;-59
2021/09/13 14:59:52;;;;;;;7.16;4.21;;;;;;;;;;372806;142;864280;-58
2021/09/13 15:00:54;;;;;;;7.14;3.87;;;;;;;;;;376634;142;856745;-59
2021/09/13 15:01:56;;;;;;;10.02;4.46;;;;;;;;;;382847;138;856722;-59
2021/09/13 15:02:57;;;;;;;6.80;3.78;;;;;;;;;;380892;138;856832;-58
2021/09/13 15:03:59;;;;;;;7.43;4.11;;;;;;;;;;381941;139;856401;-60
2021/09/13 15:05:00;;;;;;;5.76;4.04;;;;;;;;;;383774;138;856456;-58
2021/09/13 15:06:02;;;;;;;6.11;4.01;;;;;;;;;;380263;140;856356;-59
2021/09/13 15:07:04;;;;;;;7.69;3.95;;;;;;;;;;373331;141;856569;-59
2021/09/13 15:08:05;;;;;;;6.27;3.81;;;;;;;;;;380833;140;856383;-58
2021/09/13 15:09:07;;;;;;;10.34;4.27;;;;;;;;;;377842;140;856485;-58
2021/09/13 15:10:10;;;;;;;9.97;3.99;;;;;;;;;;382973;138;856409;-58
2021/09/13 15:11:11;;;;;;;6.71;4.25;;;;;;;;;;383706;140;863922;-59
2021/09/13 15:12:13;;;;;;;8.55;4.78;;;;;;;;;;380932;140;856452;-60
2021/09/13 15:13:14;;;;;;;9.38;5.31;;;;;;;;;;375810;140;856488;-58
2021/09/13 15:14:16;;;;;;;9.66;4.86;;;;;;;;;;382424;139;856799;-58
2021/09/13 15:15:18;;;;;;;7.84;4.94;;;;;;;;;;380252;140;864459;-58
2021/09/13 15:16:20;;;;;;;10.03;5.21;;;;;;;;;;380560;140;856849;-59
2021/09/13 15:17:22;;;;;;;7.62;4.77;;;;;;;;;;382976;139;856407;-58
2021/09/13 15:18:23;;;;;;;11.78;5.24;;;;;;;;;;375064;141;856405;-59
2021/09/13 15:19:25;;;;;;;9.46;5.06;;;;;;;;;;377215;140;856314;-60
2021/09/13 15:20:27;;;;;;;8.72;5.06;;;;;;;;;;381797;138;856322;-58
2021/09/13 15:21:29;;;;;;;11.91;5.15;;;;;;;;;;375131;142;863666;-58
2021/09/13 15:22:30;;;;;;;7.04;4.84;;;;;;;;;;371971;143;856713;-58
2021/09/13 15:23:32;;;;;;;8.26;4.81;;;;;;;;;;377566;139;856290;-58
2021/09/13 15:24:40;;;;;;;15.18;4.94;;;;;;;;;;380249;139;856384;-58
2021/09/13 15:25:37;;;;;;;9.24;4.56;;;;;;;;;;377447;139;856166;-58
2021/09/13 15:26:38;;;;;;;9.17;4.89;;;;;;;;;;377143;141;856354;-58
2021/09/13 15:27:40;;;;;;;9.44;4.57;;;;;;;;;;379001;139;863894;-58
2021/09/13 15:28:41;;;;;;;8.02;4.61;;;;;;;;;;379807;139;856459;-59
2021/09/13 15:29:43;;;;;;;6.13;4.39;;;;;;;;;;381459;139;856333;-58
2021/09/13 15:30:45;;;;;;;5.58;4.33;;;;;;;;;;380147;139;856289;-59
2021/09/13 15:31:48;;;;;;;8.77;4.63;;;;;;;;;;378883;139;856447;-58
2021/09/13 15:32:50;;;;;;;14.38;4.66;;;;;;;;;;379276;139;856376;-57
2021/09/13 15:33:52;;;;;;;7.39;4.55;;;;;;;;;;376387;141;856522;-57
2021/09/13 15:34:53;;;;;;;13.86;4.76;;;;;;;;;;378994;139;856356;-57
2021/09/13 15:35:58;;;;;;;7.94;4.49;;;;;;;;;;380030;139;856474;-57
2021/09/13 15:37:00;;;;;;;5.92;4.29;;;;;;;;;;381096;141;856262;-57
2021/09/13 15:38:02;;;;;;;7.19;4.56;;;;;;;;;;380398;139;856597;-57
2021/09/13 15:39:03;;;;;;;9.94;4.62;;;;;;;;;;381115;139;864077;-57
2021/09/13 15:40:05;;;;;;;8.43;4.66;;;;;;;;;;380486;139;856279;-57
2021/09/13 15:41:07;;;;;;;9.99;4.95;;;;;;;;;;378027;140;856239;-58
2021/09/13 15:42:08;;;;;;;7.83;4.96;;;;;;;;;;373581;142;856199;-56
2021/09/13 15:43:10;;;;;;;10.01;4.64;;;;;;;;;;385955;137;856372;-58
2021/09/13 15:44:12;;;;;;;10.06;5.68;;;;;;;;;;392471;136;856253;-57
2021/09/13 15:45:16;;;;;;;9.74;5.16;;;;;;;;;;393642;135;863945;-58
2021/09/13 15:46:18;;;;;;;10.38;4.56;;;;;;;;;;389070;136;856291;-58
2021/09/13 15:47:20;;;;;;;9.49;5.83;;;;;;;;;;394594;135;856521;-58
2021/09/13 15:48:21;;;;;;;13.50;4.80;;;;;;;;;;391228;136;856210;-57
2021/09/13 15:49:26;;;;;;;16.54;6.05;;;;;;;;;;390252;135;856545;-57
2021/09/13 15:50:28;;;;;;;12.40;5.26;;;;;;;;;;391788;135;856243;-57
2021/09/13 15:51:30;;;;;;;8.64;4.92;;;;;;;;;;389868;136;856172;-57
2021/09/13 15:52:32;;;;;;;7.53;5.13;;;;;;;;;;391609;135;856640;-57
2021/09/13 15:53:33;;;;;;;7.38;4.68;;;;;;;;;;391360;136;856534;-57
2021/09/13 15:54:35;;;;;;;8.91;5.04;;;;;;;;;;371756;142;863632;-58
2021/09/13 15:55:36;;;;;;;7.27;4.67;;;;;;;;;;380930;140;856727;-57
2021/09/13 15:56:38;;;;;;;6.77;5.05;;;;;;;;;;381021;139;856269;-56
2021/09/13 15:57:40;;;;;;;7.63;5.04;;;;;;;;;;381601;138;856392;-57
2021/09/13 15:58:41;;;;;;;6.31;4.39;;;;;;;;;;373751;141;856369;-57
2021/09/13 15:59:43;;;;;;;9.55;4.59;;;;;;;;;;378646;141;856651;-57
2021/09/13 16:00:45;;;;;;;9.43;4.87;;;;;;;;;;374923;141;856378;-57
2021/09/13 16:01:46;;;;;;;8.06;5.30;;;;;;;;;;374229;142;857424;-58
2021/09/13 16:02:48;;;;;;;8.54;5.20;;;;;;;;;;381986;140;856521;-58
2021/09/13 16:03:50;;;;;;;9.18;5.29;;;;;;;;;;381905;138;856510;-58
2021/09/13 16:04:51;;;;;;;10.53;5.36;;;;;;;;;;380034;139;863819;-58
2021/09/13 16:05:53;;;;;;;8.05;5.09;;;;;;;;;;376655;140;856358;-56
2021/09/13 16:06:55;;;;;;;10.92;5.61;;;;;;;;;;379195;138;856467;-57
2021/09/13 16:07:57;;;;;;;8.19;5.57;;;;;;;;;;381278;139;856464;-57
2021/09/13 16:08:59;;;;;;;7.51;5.37;;;;;;;;;;376807;140;856152;-58
2021/09/13 16:10:00;;;;;;;7.83;5.05;;;;;;;;;;377170;142;856295;-58
2021/09/13 16:11:02;;;;;;;10.12;5.89;;;;;;;;;;377413;140;856270;-58
2021/09/13 16:12:04;;;;;;;11.11;5.41;;;;;;;;;;376679;140;856291;-58
2021/09/13 16:13:05;;;;;;;9.13;5.85;;;;;;;;;;376164;142;857066;-59
2021/09/13 16:14:07;;;;;;;8.58;5.81;;;;;;;;;;381341;139;857240;-58
2021/09/13 16:15:09;;;;;;;6.80;5.42;;;;;;;;;;378491;140;856349;-58
2021/09/13 16:16:11;;;;;;;9.08;5.28;;;;;;;;;;377570;140;857191;-58
2021/09/13 16:17:13;;;;;;;7.26;5.49;;;;;;;;;;380069;141;856453;-58
2021/09/13 16:18:16;;;;;;;7.86;5.41;;;;;;;;;;380549;139;856880;-58
2021/09/13 16:19:18;;;;;;;8.11;5.44;;;;;;;;;;379662;139;856265;-58
2021/09/13 16:20:20;;;;;;;9.49;5.66;;;;;;;;;;378070;141;856209;-58
2021/09/13 16:21:22;;;;;;;7.06;5.34;;;;;;;;;;377878;139;856401;-57
2021/09/13 16:22:23;;;;;;;6.31;5.29;;;;;;;;;;374039;142;856211;-58
2021/09/13 16:23:26;;;;;;;7.89;5.30;;;;;;;;;;378238;139;856278;-58
2021/09/13 16:24:36;;;;;;;11.81;6.12;;;;;;;;;;378836;140;856276;-59
2021/09/13 16:25:31;;;;;;;13.22;5.40;;;;;;;;;;380195;138;856261;-58
2021/09/13 16:26:33;;;;;;;17.51;5.81;;;;;;;;;;378424;139;856329;-59
2021/09/13 16:27:35;;;;;;;6.30;5.11;;;;;;;;;;378848;141;856170;-59
2021/09/13 16:28:37;;;;;;;9.03;5.37;;;;;;;;;;378624;140;863652;-59
2021/09/13 16:29:38;;;;;;;7.26;5.19;;;;;;;;;;378846;140;856704;-59
2021/09/13 16:30:41;;;;;;;8.01;4.91;;;;;;;;;;375149;140;856323;-58
2021/09/13 16:31:46;;;;;;;9.51;5.01;;;;;;;;;;374389;143;856288;-59
2021/09/13 16:32:47;;;;;;;7.44;5.98;;;;;;;;;;383123;138;863633;-59
2021/09/13 16:33:49;;;;;;;10.21;5.91;;;;;;;;;;381617;139;857368;-59
2021/09/13 16:34:51;;;;;;;8.79;5.15;;;;;;;;;;380685;140;857779;-58
2021/09/13 16:35:53;;;;;;;6.19;5.16;;;;;;;;;;381362;138;856526;-59
2021/09/13 16:36:54;;;;;;;10.55;5.54;;;;;;;;;;376637;140;863876;-59
2021/09/13 16:37:56;;;;;;;8.47;6.22;;;;;;;;;;381486;138;856187;-58
2021/09/13 16:38:58;;;;;;;14.76;5.64;;;;;;;;;;375991;143;856312;-59
2021/09/13 16:39:59;;;;;;;7.67;5.33;;;;;;;;;;372365;141;863872;-58
2021/09/13 16:41:01;;;;;;;8.44;5.02;;;;;;;;;;381338;139;856328;-58
2021/09/13 16:42:07;;;;;;;6.85;4.61;;;;;;;;;;377670;141;856361;-58
2021/09/13 16:43:06;;;;;;;6.41;4.85;;;;;;;;;;382435;139;856175;-58
2021/09/13 16:44:07;;;;;;;7.74;5.51;;;;;;;;;;375016;142;856280;-59
2021/09/13 16:45:09;;;;;;;9.69;4.94;;;;;;;;;;374678;141;856655;-59
2021/09/13 16:46:11;;;;;;;7.39;5.45;;;;;;;;;;376084;140;856607;-59
2021/09/13 16:47:12;;;;;;;8.84;5.59;;;;;;;;;;375207;140;856975;-58
2021/09/13 16:48:14;;;;;;;10.06;4.91;;;;;;;;;;375589;141;856489;-59
2021/09/13 16:49:16;;;;;;;7.46;4.99;;;;;;;;;;374012;141;856321;-58
2021/09/13 16:50:17;;;;;;;6.77;4.73;;;;;;;;;;375343;142;856432;-58
2021/09/13 16:51:19;;;;;;;9.26;5.16;;;;;;;;;;375002;141;856261;-58
2021/09/13 16:52:21;;;;;;;6.61;4.59;;;;;;;;;;380303;138;856760;-59
2021/09/13 16:53:22;;;;;;;10.71;5.37;;;;;;;;;;380128;140;856198;-58
2021/09/13 16:54:24;;;;;;;5.91;4.54;;;;;;;;;;382998;139;856239;-58
2021/09/13 16:55:25;;;;;;;8.48;4.90;;;;;;;;;;376350;141;863716;-58
2021/09/13 16:56:28;;;;;;;6.99;4.56;;;;;;;;;;371393;141;856276;-58
2021/09/13 16:57:29;;;;;;;6.60;4.14;;;;;;;;;;373275;142;856384;-59
2021/09/13 16:58:35;;;;;;;8.36;5.23;;;;;;;;;;373200;141;856284;-58
2021/09/13 16:59:37;;;;;;;8.36;4.78;;;;;;;;;;372083;141;856145;-58
2021/09/13 17:00:39;;;;;;;7.56;4.84;;;;;;;;;;374322;142;856184;-58
2021/09/13 17:01:40;;;;;;;6.06;4.67;;;;;;;;;;373696;141;864041;-57
2021/09/13 17:02:42;;;;;;;8.92;5.39;;;;;;;;;;375899;141;856274;-58
2021/09/13 17:03:43;;;;;;;7.74;4.65;;;;;;;;;;380093;140;863822;-58
2021/09/13 17:04:45;;;;;;;7.02;4.78;;;;;;;;;;379196;142;856414;-58
2021/09/13 17:05:47;;;;;;;5.25;4.19;;;;;;;;;;381514;139;856388;-57
2021/09/13 17:06:49;;;;;;;4.38;3.73;;;;;;;;;;376149;139;856376;-58
2021/09/13 17:07:50;;;;;;;6.09;4.41;;;;;;;;;;376439;142;856678;-58
2021/09/13 17:08:52;;;;;;;6.45;4.39;;;;;;;;;;381634;140;856508;-58
2021/09/13 17:09:54;;;;;;;8.84;5.41;;;;;;;;;;384346;138;856766;-57
2021/09/13 17:10:59;;;;;;;8.60;5.04;;;;;;;;;;382574;140;856447;-58
2021/09/13 17:12:00;;;;;;;5.71;4.38;;;;;;;;;;381248;140;856511;-58
2021/09/13 17:13:02;;;;;;;6.95;4.21;;;;;;;;;;383062;140;856739;-59
2021/09/13 17:14:03;;;;;;;6.05;4.65;;;;;;;;;;381410;138;856374;-58
2021/09/13 17:15:05;;;;;;;9.33;4.97;;;;;;;;;;381776;140;863772;-58
2021/09/13 17:16:08;;;;;;;5.26;4.21;;;;;;;;;;383279;140;856121;-58
2021/09/13 17:17:09;;;;;;;7.82;4.46;;;;;;;;;;382526;138;856270;-57
2021/09/13 17:18:11;;;;;;;6.56;4.44;;;;;;;;;;381865;140;856572;-57
2021/09/13 17:19:13;;;;;;;5.56;4.07;;;;;;;;;;377769;140;856779;-57
2021/09/13 17:20:16;;;;;;;5.21;4.27;;;;;;;;;;382593;138;857053;-58
2021/09/13 17:21:18;;;;;;;5.22;4.06;;;;;;;;;;383630;138;856245;-59
2021/09/13 17:22:20;;;;;;;8.00;4.04;;;;;;;;;;380612;140;856241;-58
2021/09/13 17:23:21;;;;;;;9.03;4.59;;;;;;;;;;377583;140;863752;-58
2021/09/13 17:24:23;;;;;;;7.92;4.87;;;;;;;;;;383782;140;856173;-58
2021/09/13 17:25:24;;;;;;;7.72;4.66;;;;;;;;;;377700;139;856169;-58
2021/09/13 17:26:26;;;;;;;6.28;4.24;;;;;;;;;;380746;141;856164;-59
2021/09/13 17:27:28;;;;;;;8.97;5.33;;;;;;;;;;381628;138;863599;-58
2021/09/13 17:28:29;;;;;;;7.98;5.63;;;;;;;;;;383325;138;856211;-58
2021/09/13 17:29:31;;;;;;;6.44;4.41;;;;;;;;;;383600;140;856218;-58
2021/09/13 17:30:33;;;;;;;7.22;5.30;;;;;;;;;;383348;138;856170;-58
2021/09/13 17:31:34;;;;;;;7.78;5.04;;;;;;;;;;383122;138;856379;-58
2021/09/13 17:32:38;;;;;;;5.49;4.46;;;;;;;;;;383901;138;856736;-57
2021/09/13 17:33:39;;;;;;;7.57;5.01;;;;;;;;;;379526;138;856790;-57
2021/09/13 17:34:41;;;;;;;7.94;5.86;;;;;;;;;;379458;140;856471;-58
2021/09/13 17:35:42;;;;;;;7.21;5.69;;;;;;;;;;378526;139;856233;-58
2021/09/13 17:36:45;;;;;;;7.06;4.36;;;;;;;;;;374724;141;856283;-58
2021/09/13 17:37:47;;;;;;;7.64;5.96;;;;;;;;;;375695;141;863843;-58
2021/09/13 17:38:48;;;;;;;7.37;5.76;;;;;;;;;;376600;141;856331;-58
2021/09/13 17:39:50;;;;;;;8.42;5.57;;;;;;;;;;376343;140;857149;-58
2021/09/13 17:40:53;;;;;;;7.41;5.45;;;;;;;;;;374686;140;864470;-59
2021/09/13 17:41:55;;;;;;;9.66;5.77;;;;;;;;;;381301;138;856308;-58
2021/09/13 17:42:56;;;;;;;9.53;5.69;;;;;;;;;;379389;138;863825;-58
2021/09/13 17:43:58;;;;;;;6.65;5.10;;;;;;;;;;373692;140;856261;-58
2021/09/13 17:44:59;;;;;;;9.84;5.23;;;;;;;;;;374892;140;856149;-58
2021/09/13 17:46:01;;;;;;;11.11;5.92;;;;;;;;;;375673;140;863965;-59
2021/09/13 17:47:02;;;;;;;7.90;5.21;;;;;;;;;;375158;141;856284;-58
2021/09/13 17:48:04;;;;;;;10.71;5.11;;;;;;;;;;375499;142;856279;-58
2021/09/13 17:49:06;;;;;;;6.69;4.99;;;;;;;;;;375962;142;863788;-58
2021/09/13 17:50:08;;;;;;;9.65;5.06;;;;;;;;;;382509;139;863663;-57
2021/09/13 17:51:10;;;;;;;7.11;5.11;;;;;;;;;;382233;140;856166;-58
2021/09/13 17:52:12;;;;;;;11.41;5.73;;;;;;;;;;378593;139;856235;-57
2021/09/13 17:53:14;;;;;;;9.65;5.59;;;;;;;;;;372526;142;856376;-57